createdAt,value
2022-11-08T00:00:08.928Z,2.63
2022-11-08T00:02:35.751Z,2.87
2022-11-08T00:05:21.413Z,2.60
2022-11-08T00:08:06.668Z,3.30
2022-11-08T00:10:52.026Z,3.00
2022-11-08T00:13:37.125Z,3.27
2022-11-08T00:16:03.889Z,2.63
2022-11-08T00:18:30.648Z,2.43
2022-11-08T00:21:02.149Z,3.10
2022-11-08T00:23:29.003Z,3.57
2022-11-08T00:25:55.831Z,2.93
2022-11-08T00:28:22.508Z,3.43
2022-11-08T00:30:49.276Z,2.47
2022-11-08T00:33:16.075Z,3.40
2022-11-08T00:35:42.775Z,2.47
2022-11-08T00:38:09.609Z,2.80
2022-11-08T00:40:36.300Z,2.90
2022-11-08T00:43:02.994Z,2.93
2022-11-08T00:45:29.698Z,2.93
2022-11-08T00:47:56.422Z,2.97
2022-11-08T00:50:23.133Z,3.20
2022-11-08T00:52:49.835Z,2.13
2022-11-08T00:55:16.580Z,2.63
2022-11-08T00:57:58.360Z,2.83
2022-11-08T01:00:26.733Z,2.50
2022-11-08T01:03:13.433Z,2.73
2022-11-08T01:05:40.246Z,2.90
2022-11-08T01:08:07.332Z,2.67
2022-11-08T01:10:34.041Z,3.03
2022-11-08T01:13:00.846Z,2.60
2022-11-08T01:15:27.810Z,2.70
2022-11-08T01:17:54.654Z,2.80
2022-11-08T01:20:21.413Z,3.30
2022-11-08T01:22:48.161Z,3.23
2022-11-08T01:25:14.926Z,2.97
2022-11-08T01:27:43.514Z,2.03
2022-11-08T01:30:10.739Z,3.03
2022-11-08T01:32:37.442Z,3.73
2022-11-08T01:35:04.457Z,3.13
2022-11-08T01:37:31.354Z,2.80
2022-11-08T01:39:58.056Z,3.63
2022-11-08T01:42:29.508Z,3.40
2022-11-08T01:44:58.462Z,3.07
2022-11-08T01:47:25.415Z,4.37
2022-11-08T01:49:56.914Z,3.07
2022-11-08T01:52:34.323Z,3.13
2022-11-08T01:55:13.407Z,2.93
2022-11-08T01:57:55.001Z,3.30
2022-11-08T02:00:22.011Z,2.90
2022-11-08T02:03:00.904Z,2.60
2022-11-08T02:05:30.578Z,3.20
2022-11-08T02:08:31.990Z,3.27
2022-11-08T02:10:58.836Z,3.50
2022-11-08T02:13:27.789Z,3.00
2022-11-08T02:15:54.654Z,2.70
2022-11-08T02:18:24.393Z,3.60
2022-11-08T02:21:03.008Z,3.43
2022-11-08T02:23:49.969Z,2.83
2022-11-08T02:26:19.697Z,3.13
2022-11-08T02:28:48.122Z,2.90
2022-11-08T02:31:17.417Z,3.10
2022-11-08T02:33:45.220Z,3.00
2022-11-08T02:36:20.397Z,2.67
2022-11-08T02:38:51.854Z,3.00
2022-11-08T02:41:18.734Z,3.20
2022-11-08T02:43:45.473Z,3.00
2022-11-08T02:46:12.227Z,3.13
2022-11-08T02:48:39.060Z,2.70
2022-11-08T02:51:05.975Z,3.20
2022-11-08T02:53:32.931Z,3.33
2022-11-08T02:55:59.762Z,2.90
2022-11-08T02:58:27.971Z,2.83
2022-11-08T03:00:54.854Z,2.83
2022-11-08T03:03:21.673Z,2.93
2022-11-08T03:05:48.879Z,2.67
2022-11-08T03:08:16.238Z,2.43
2022-11-08T03:10:43.309Z,3.73
2022-11-08T03:13:10.118Z,2.67
2022-11-08T03:15:36.853Z,3.13
2022-11-08T03:18:03.692Z,3.30
2022-11-08T03:20:33.013Z,2.50
2022-11-08T03:23:02.290Z,2.40
2022-11-08T03:25:29.938Z,3.00
2022-11-08T03:28:00.829Z,2.40
2022-11-08T03:30:27.530Z,2.70
2022-11-08T03:32:54.225Z,2.87
2022-11-08T03:35:20.974Z,2.77
2022-11-08T03:37:55.693Z,2.47
2022-11-08T03:40:23.398Z,2.30
2022-11-08T03:42:50.133Z,2.37
2022-11-08T03:45:17.254Z,2.20
2022-11-08T03:47:46.097Z,2.20
2022-11-08T03:50:15.043Z,1.90
2022-11-08T03:52:47.316Z,1.83
2022-11-08T03:55:15.002Z,1.63
2022-11-08T03:57:42.621Z,1.60
2022-11-08T04:00:13.060Z,1.60
2022-11-08T04:02:40.375Z,1.47
2022-11-08T04:05:09.133Z,2.20
2022-11-08T04:07:36.687Z,1.30
2022-11-08T04:10:08.334Z,2.00
2022-11-08T04:12:56.799Z,1.50
2022-11-08T04:15:23.951Z,2.07
2022-11-08T04:18:11.235Z,1.70
2022-11-08T04:21:01.349Z,2.20
2022-11-08T04:23:30.792Z,1.63
2022-11-08T04:26:00.072Z,2.00
2022-11-08T04:28:32.242Z,2.40
2022-11-08T04:31:04.941Z,2.30
2022-11-08T04:33:32.193Z,2.30
2022-11-08T04:36:03.986Z,2.33
2022-11-08T04:38:32.154Z,3.20
2022-11-08T04:41:03.904Z,1.87
2022-11-08T04:43:31.273Z,2.40
2022-11-08T04:46:10.880Z,2.10
2022-11-08T04:48:38.012Z,2.00
2022-11-08T04:51:07.703Z,2.03
2022-11-08T04:53:34.835Z,2.10
2022-11-08T04:56:07.556Z,2.73
2022-11-08T04:58:36.847Z,3.00
2022-11-08T05:01:05.133Z,2.07
2022-11-08T05:03:32.266Z,2.70
2022-11-08T05:06:08.013Z,2.20
2022-11-08T05:08:34.730Z,2.03
2022-11-08T05:11:06.475Z,2.70
2022-11-08T05:13:33.907Z,1.77
2022-11-08T05:16:06.089Z,2.07
2022-11-08T05:18:33.163Z,2.40
2022-11-08T05:21:19.998Z,2.30
2022-11-08T05:23:48.798Z,2.50
2022-11-08T05:26:17.445Z,2.70
2022-11-08T05:28:44.246Z,2.37
2022-11-08T05:31:11.484Z,3.10
2022-11-08T05:33:38.493Z,2.40
2022-11-08T05:36:14.121Z,2.57
2022-11-08T05:38:42.441Z,2.90
2022-11-08T05:41:18.855Z,2.80
2022-11-08T05:43:47.842Z,2.57
2022-11-08T05:46:15.158Z,2.30
2022-11-08T05:48:43.146Z,2.93
2022-11-08T05:51:12.127Z,2.50
2022-11-08T05:53:40.286Z,2.30
2022-11-08T05:56:07.827Z,2.60
2022-11-08T05:58:35.723Z,2.97
2022-11-08T06:01:05.051Z,3.40
2022-11-08T06:03:32.356Z,2.30
2022-11-08T06:06:11.102Z,3.10
2022-11-08T06:08:38.570Z,3.37
2022-11-08T06:11:10.564Z,3.30
2022-11-08T06:13:37.900Z,2.87
2022-11-08T06:16:07.645Z,2.83
2022-11-08T06:18:34.944Z,3.10
2022-11-08T06:21:05.533Z,3.47
2022-11-08T06:23:32.544Z,2.50
2022-11-08T06:26:00.007Z,2.43
2022-11-08T06:28:27.555Z,2.87
2022-11-08T06:30:54.516Z,3.40
2022-11-08T06:33:21.868Z,2.40
2022-11-08T06:35:49.222Z,3.23
2022-11-08T06:38:15.904Z,2.47
2022-11-08T06:40:43.004Z,2.87
2022-11-08T06:43:19.279Z,2.27
2022-11-08T06:45:46.582Z,2.43
2022-11-08T06:48:13.361Z,2.47
2022-11-08T06:50:41.770Z,3.10
2022-11-08T06:53:11.852Z,2.00
2022-11-08T06:55:38.614Z,2.80
2022-11-08T06:58:05.629Z,2.43
2022-11-08T07:00:32.680Z,2.23
2022-11-08T07:03:01.458Z,2.50
2022-11-08T07:05:30.275Z,2.67
2022-11-08T07:07:59.278Z,1.90
2022-11-08T07:10:29.347Z,2.20
2022-11-08T07:13:01.772Z,3.10
2022-11-08T07:15:29.515Z,2.50
2022-11-08T07:18:01.043Z,2.87
2022-11-08T07:20:27.880Z,2.40
2022-11-08T07:22:55.901Z,2.30
2022-11-08T07:25:22.978Z,2.63
2022-11-08T07:27:49.718Z,2.53
2022-11-08T07:30:16.526Z,3.20
2022-11-08T07:32:43.242Z,3.00
2022-11-08T07:35:10.034Z,2.90
2022-11-08T07:37:36.772Z,3.13
2022-11-08T07:40:03.755Z,2.40
2022-11-08T07:42:49.826Z,3.30
2022-11-08T07:45:17.691Z,2.63
2022-11-08T07:47:44.573Z,3.03
2022-11-08T07:50:12.746Z,2.90
2022-11-08T07:52:41.894Z,3.00
2022-11-08T07:55:08.724Z,4.00
2022-11-08T07:57:35.564Z,3.00
2022-11-08T08:00:07.262Z,3.23
2022-11-08T08:02:34.550Z,3.03
2022-11-08T08:05:01.331Z,3.23
2022-11-08T08:07:28.022Z,3.87
2022-11-08T08:09:54.877Z,3.30
2022-11-08T08:12:21.686Z,3.23
2022-11-08T08:14:48.458Z,3.87
2022-11-08T08:17:15.293Z,3.77
2022-11-08T08:19:41.997Z,3.37
2022-11-08T08:22:08.818Z,3.87
2022-11-08T08:24:35.657Z,4.23
2022-11-08T08:27:03.597Z,3.60
2022-11-08T08:29:30.562Z,3.13
2022-11-08T08:31:57.442Z,3.77
2022-11-08T08:34:24.315Z,5.07
2022-11-08T08:36:51.064Z,4.40
2022-11-08T08:39:17.836Z,4.83
2022-11-08T08:41:44.560Z,5.43
2022-11-08T08:44:11.342Z,4.13
2022-11-08T08:46:38.088Z,5.50
2022-11-08T08:49:04.844Z,5.30
2022-11-08T08:51:31.540Z,5.17
2022-11-08T08:53:58.702Z,4.50
2022-11-08T08:56:25.425Z,5.20
2022-11-08T09:01:39.104Z,5.23
2022-11-08T09:04:05.948Z,4.57
2022-11-08T09:06:32.858Z,6.30
2022-11-08T09:08:59.634Z,5.57
2022-11-08T09:11:26.670Z,5.70
2022-11-08T09:13:53.455Z,4.90
2022-11-08T09:16:20.220Z,4.90
2022-11-08T09:18:47.062Z,5.57
2022-11-08T09:21:13.883Z,5.63
2022-11-08T09:23:42.262Z,4.07
2022-11-08T09:26:10.337Z,5.03
2022-11-08T09:28:37.790Z,4.97
2022-11-08T09:31:07.774Z,5.83
2022-11-08T09:33:34.830Z,5.60
2022-11-08T09:36:02.741Z,4.70
2022-11-08T09:38:29.710Z,5.07
2022-11-08T09:41:22.490Z,4.80
2022-11-08T09:43:58.747Z,6.10
2022-11-08T09:46:35.716Z,4.90
2022-11-08T09:49:05.675Z,5.43
2022-11-08T09:51:35.108Z,4.63
2022-11-08T09:54:03.592Z,4.10
2022-11-08T09:56:40.732Z,4.13
2022-11-08T09:59:34.042Z,4.20
2022-11-08T10:02:00.944Z,4.83
2022-11-08T10:04:31.851Z,4.10
2022-11-08T10:07:23.121Z,5.57
2022-11-08T10:10:16.513Z,5.07
2022-11-08T10:13:26.452Z,4.10
2022-11-08T10:16:04.297Z,4.43
2022-11-08T10:18:49.971Z,4.37
2022-11-08T10:21:31.682Z,3.70
2022-11-08T10:24:23.404Z,4.87
2022-11-08T10:26:52.318Z,4.97
2022-11-08T10:29:25.471Z,3.93
2022-11-08T10:32:01.552Z,3.40
2022-11-08T10:34:37.462Z,3.73
2022-11-08T10:37:06.725Z,3.60
2022-11-08T10:39:41.305Z,3.77
2022-11-08T10:42:37.172Z,4.50
2022-11-08T10:45:04.128Z,3.63
2022-11-08T10:47:33.448Z,3.63
2022-11-08T10:50:04.135Z,3.93
2022-11-08T10:53:01.558Z,3.27
2022-11-08T10:55:33.608Z,3.00
2022-11-08T10:58:00.808Z,2.83
2022-11-08T11:00:30.940Z,4.00
2022-11-08T11:03:18.395Z,2.93
2022-11-08T11:05:59.991Z,3.17
2022-11-08T11:08:27.550Z,3.27
2022-11-08T11:10:55.228Z,3.50
2022-11-08T11:13:25.082Z,4.23
2022-11-08T11:16:05.708Z,4.43
2022-11-08T11:18:38.057Z,4.20
2022-11-08T11:21:17.969Z,4.00
2022-11-08T11:23:49.428Z,3.30
2022-11-08T11:26:32.090Z,3.70
2022-11-08T11:29:04.918Z,4.13
2022-11-08T11:31:41.145Z,3.77
2022-11-08T11:34:19.758Z,4.37
2022-11-08T11:36:55.169Z,3.97
2022-11-08T11:39:49.638Z,3.27
2022-11-08T11:42:45.150Z,3.67
2022-11-08T11:45:36.412Z,5.10
2022-11-08T11:48:11.066Z,3.00
2022-11-08T11:50:40.303Z,4.43
2022-11-08T11:53:13.209Z,4.00
2022-11-08T11:56:01.304Z,4.57
2022-11-08T11:58:59.332Z,4.47
2022-11-08T12:01:47.068Z,3.67
2022-11-08T12:04:52.231Z,4.03
2022-11-08T12:07:33.662Z,3.60
2022-11-08T12:10:32.579Z,3.83
2022-11-08T12:13:51.524Z,3.30
2022-11-08T12:16:34.283Z,3.57
2022-11-08T12:19:11.279Z,3.57
2022-11-08T12:22:06.853Z,3.07
2022-11-08T12:24:47.800Z,3.47
2022-11-08T12:27:37.593Z,3.33
2022-11-08T12:30:15.895Z,4.00
2022-11-08T12:32:48.401Z,3.53
2022-11-08T12:35:31.054Z,3.27
2022-11-08T12:38:15.643Z,3.07
2022-11-08T12:40:42.576Z,4.10
2022-11-08T12:43:30.817Z,4.07
2022-11-08T12:46:08.950Z,3.27
2022-11-08T12:49:03.885Z,3.20
2022-11-08T12:51:42.568Z,4.90
2022-11-08T12:54:31.106Z,3.97
2022-11-08T12:57:02.663Z,3.60
2022-11-08T12:59:42.686Z,4.37
2022-11-08T13:02:26.040Z,3.80
2022-11-08T13:05:07.774Z,4.20
2022-11-08T13:07:37.240Z,3.77
2022-11-08T13:10:23.051Z,3.50
2022-11-08T13:13:08.360Z,3.77
2022-11-08T13:15:35.865Z,4.43
2022-11-08T13:18:11.437Z,4.53
2022-11-08T13:20:44.791Z,3.97
2022-11-08T13:23:20.779Z,3.43
2022-11-08T13:25:48.340Z,3.67
2022-11-08T13:28:46.335Z,4.00
2022-11-08T13:31:36.741Z,3.53
2022-11-08T13:34:35.407Z,3.30
2022-11-08T13:37:22.612Z,3.63
2022-11-08T13:40:02.737Z,3.20
2022-11-08T13:42:35.682Z,3.80
2022-11-08T13:45:17.720Z,3.17
2022-11-08T13:47:44.439Z,3.07
2022-11-08T13:50:29.254Z,3.53
2022-11-08T13:53:04.643Z,4.20
2022-11-08T13:55:43.290Z,1.23
2022-11-08T13:58:38.534Z,1.23
2022-11-08T14:01:19.426Z,1.30
2022-11-08T14:03:46.175Z,1.13
2022-11-08T14:06:40.521Z,1.37
2022-11-08T14:09:30.666Z,1.13
2022-11-08T14:12:09.082Z,1.17
2022-11-08T14:14:57.570Z,1.53
2022-11-08T14:17:46.118Z,1.73
2022-11-08T14:20:34.870Z,1.20
2022-11-08T14:23:21.145Z,1.53
2022-11-08T14:25:51.301Z,1.90
2022-11-08T14:28:26.636Z,2.77
2022-11-08T14:30:53.839Z,2.30
2022-11-08T14:33:26.670Z,2.57
2022-11-08T14:36:07.776Z,2.10
2022-11-08T14:38:44.835Z,2.03
2022-11-08T14:41:15.559Z,2.00
2022-11-08T14:43:47.575Z,1.37
2022-11-08T14:46:20.497Z,1.70
2022-11-08T14:48:55.178Z,1.53
2022-11-08T14:51:22.269Z,1.57
2022-11-08T14:53:51.568Z,1.10
2022-11-08T14:56:26.648Z,1.40
2022-11-08T14:58:55.693Z,1.77
2022-11-08T15:01:27.730Z,1.33
2022-11-08T15:04:00.597Z,1.40
2022-11-08T15:06:42.456Z,1.70
2022-11-08T15:09:21.245Z,1.67
2022-11-08T15:12:16.861Z,1.63
2022-11-08T15:15:00.981Z,1.60
2022-11-08T15:17:33.066Z,1.77
2022-11-08T15:20:13.085Z,1.83
2022-11-08T15:22:40.345Z,1.83
2022-11-08T15:25:19.668Z,1.50
2022-11-08T15:27:51.920Z,1.90
2022-11-08T15:30:46.295Z,1.83
2022-11-08T15:33:25.851Z,1.73
2022-11-08T15:35:53.097Z,1.73
2022-11-08T15:38:25.040Z,1.83
2022-11-08T15:40:54.441Z,1.90
2022-11-08T15:43:40.118Z,2.00
2022-11-08T15:46:24.910Z,2.13
2022-11-08T15:49:00.085Z,1.83
2022-11-08T15:51:26.927Z,1.73
2022-11-08T15:53:53.754Z,1.83
2022-11-08T15:56:20.743Z,2.10
2022-11-08T15:58:47.448Z,2.53
2022-11-08T16:01:20.072Z,2.03
2022-11-08T16:03:47.542Z,2.67
2022-11-08T16:06:15.098Z,1.87
2022-11-08T16:08:42.229Z,2.10
2022-11-08T16:11:18.724Z,2.40
2022-11-08T16:13:45.542Z,2.00
2022-11-08T16:16:14.668Z,3.07
2022-11-08T16:18:42.090Z,2.23
2022-11-08T16:21:13.754Z,2.37
2022-11-08T16:23:41.152Z,2.27
2022-11-08T16:26:14.464Z,2.83
2022-11-08T16:28:42.022Z,3.63
2022-11-08T16:31:14.382Z,3.10
2022-11-08T16:33:43.271Z,2.50
2022-11-08T16:36:19.268Z,2.63
2022-11-08T16:38:53.493Z,2.87
2022-11-08T16:41:20.781Z,2.90
2022-11-08T16:43:47.809Z,2.70
2022-11-08T16:46:15.439Z,3.00
2022-11-08T16:48:48.325Z,3.50
2022-11-08T16:51:21.230Z,2.93
2022-11-08T16:53:49.328Z,3.43
2022-11-08T16:56:16.238Z,2.97
2022-11-08T16:58:43.279Z,3.40
2022-11-08T17:01:20.898Z,3.43
2022-11-08T17:03:47.752Z,2.97
2022-11-08T17:06:18.127Z,2.73
2022-11-08T17:08:46.154Z,2.83
2022-11-08T17:11:19.550Z,3.03
2022-11-08T17:13:46.721Z,2.97
2022-11-08T17:16:14.192Z,2.83
2022-11-08T17:18:41.216Z,2.97
2022-11-08T17:21:30.247Z,3.33
2022-11-08T17:23:58.194Z,3.27
2022-11-08T17:26:24.975Z,2.90
2022-11-08T17:28:55.243Z,2.50
2022-11-08T17:31:22.012Z,3.43
2022-11-08T17:33:48.775Z,4.07
2022-11-08T17:36:15.510Z,3.97
2022-11-08T17:38:42.892Z,3.57
2022-11-08T17:41:14.984Z,2.60
2022-11-08T17:43:42.627Z,3.77
2022-11-08T17:46:10.883Z,3.80
2022-11-08T17:48:38.787Z,3.20
2022-11-08T17:51:05.730Z,3.93
2022-11-08T17:53:34.276Z,4.73
2022-11-08T17:56:04.760Z,3.57
2022-11-08T17:58:34.203Z,3.97
2022-11-08T18:01:03.371Z,4.27
2022-11-08T18:03:31.458Z,3.23
2022-11-08T18:06:00.697Z,3.87
2022-11-08T18:08:29.385Z,3.30
2022-11-08T18:10:56.634Z,3.20
2022-11-08T18:13:24.601Z,3.53
2022-11-08T18:15:52.378Z,3.63
2022-11-08T18:18:19.620Z,3.73
2022-11-08T18:20:53.722Z,4.23
2022-11-08T18:23:21.009Z,3.60
2022-11-08T18:25:49.516Z,3.83
2022-11-08T18:28:17.515Z,3.70
2022-11-08T18:30:48.055Z,3.80
2022-11-08T18:33:19.630Z,3.57
2022-11-08T18:35:46.596Z,4.43
2022-11-08T18:38:14.209Z,4.83
2022-11-08T18:40:43.663Z,4.07
2022-11-08T18:43:10.396Z,5.00
2022-11-08T18:45:37.706Z,5.00
2022-11-08T18:48:04.524Z,4.77
2022-11-08T18:50:32.647Z,4.10
2022-11-08T18:53:03.306Z,5.20
2022-11-08T18:55:31.475Z,4.03
2022-11-08T18:57:58.337Z,4.00
2022-11-08T19:00:25.078Z,4.60
2022-11-08T19:02:51.910Z,3.70
2022-11-08T19:05:18.810Z,3.97
2022-11-08T19:07:46.139Z,3.70
2022-11-08T19:10:13.020Z,4.17
2022-11-08T19:12:39.770Z,4.80
2022-11-08T19:15:06.967Z,4.10
2022-11-08T19:17:35.263Z,4.73
2022-11-08T19:20:02.618Z,5.03
2022-11-08T19:22:29.564Z,3.87
2022-11-08T19:24:56.288Z,4.30
2022-11-08T19:27:23.249Z,6.00
2022-11-08T19:29:51.127Z,4.23
2022-11-08T19:32:18.077Z,4.80
2022-11-08T19:34:48.205Z,5.30
2022-11-08T19:37:14.994Z,5.73
2022-11-08T19:39:41.749Z,4.73
2022-11-08T19:42:08.558Z,4.20
2022-11-08T19:44:35.271Z,4.37
2022-11-08T19:47:02.153Z,4.93
2022-11-08T19:49:28.925Z,4.53
2022-11-08T19:51:55.672Z,5.60
2022-11-08T19:54:22.490Z,4.60
2022-11-08T19:57:06.116Z,4.13
2022-11-08T19:59:35.129Z,4.63
2022-11-08T20:02:01.943Z,4.30
2022-11-08T20:04:28.687Z,5.30
2022-11-08T20:06:55.479Z,5.93
2022-11-08T20:09:27.345Z,4.50
2022-11-08T20:11:56.937Z,4.67
2022-11-08T20:14:23.691Z,4.60
2022-11-08T20:16:53.399Z,4.70
2022-11-08T20:19:20.664Z,5.60
2022-11-08T20:21:48.031Z,4.37
2022-11-08T20:24:15.648Z,4.93
2022-11-08T20:26:42.533Z,4.90
2022-11-08T20:29:09.789Z,5.07
2022-11-08T20:31:38.726Z,4.90
2022-11-08T20:34:09.791Z,4.50
2022-11-08T20:36:37.798Z,5.90
2022-11-08T20:39:07.720Z,5.90
2022-11-08T20:41:37.307Z,5.80
2022-11-08T20:44:05.742Z,4.43
2022-11-08T20:46:34.126Z,4.90
2022-11-08T20:49:01.717Z,4.30
2022-11-08T20:51:30.094Z,4.87
2022-11-08T20:53:58.087Z,4.73
2022-11-08T20:56:25.615Z,4.00
2022-11-08T20:58:53.454Z,5.07
2022-11-08T21:01:23.227Z,4.80
2022-11-08T21:03:51.726Z,5.20
2022-11-08T21:06:21.998Z,4.80
2022-11-08T21:08:59.245Z,5.10
2022-11-08T21:11:27.463Z,5.40
2022-11-08T21:13:54.207Z,4.60
2022-11-08T21:16:53.166Z,5.03
2022-11-08T21:19:08.820Z,5.80
2022-11-08T21:21:35.735Z,5.27
2022-11-08T21:24:02.445Z,4.07
2022-11-08T21:26:29.237Z,4.73
2022-11-08T21:28:55.960Z,4.60
2022-11-08T21:31:26.156Z,3.93
2022-11-08T21:33:52.929Z,4.87
2022-11-08T21:36:20.572Z,4.33
2022-11-08T21:38:47.282Z,4.83
2022-11-08T21:41:14.096Z,4.53
2022-11-08T21:43:44.146Z,5.00
2022-11-08T21:46:21.293Z,4.53
2022-11-08T21:48:53.990Z,4.33
2022-11-08T21:51:20.971Z,4.17
2022-11-08T21:53:54.701Z,3.87
2022-11-08T21:56:23.696Z,4.17
2022-11-08T21:58:50.640Z,5.27
2022-11-08T22:01:17.878Z,3.97
2022-11-08T22:03:45.668Z,4.87
2022-11-08T22:06:12.459Z,4.33
2022-11-08T22:08:39.253Z,4.40
2022-11-08T22:11:06.191Z,3.47
2022-11-08T22:13:33.010Z,5.13
2022-11-08T22:15:59.868Z,3.67
2022-11-08T22:18:43.590Z,4.50
2022-11-08T22:21:31.974Z,3.80
2022-11-08T22:23:58.793Z,4.53
2022-11-08T22:26:25.546Z,4.13
2022-11-08T22:28:52.315Z,4.07
2022-11-08T22:31:19.156Z,4.50
2022-11-08T22:33:45.937Z,4.10
2022-11-08T22:36:12.925Z,5.23
2022-11-08T22:38:40.160Z,4.40
2022-11-08T22:41:07.338Z,4.97
2022-11-08T22:43:35.154Z,4.37
2022-11-08T22:46:02.129Z,5.23
2022-11-08T22:48:28.887Z,4.67
2022-11-08T22:50:56.102Z,4.33
2022-11-08T22:53:23.062Z,4.20
2022-11-08T22:55:49.976Z,4.50
2022-11-08T22:58:16.695Z,3.93
2022-11-08T23:00:43.431Z,4.17
2022-11-08T23:03:10.225Z,4.43
2022-11-08T23:05:37.164Z,4.20
2022-11-08T23:08:04.257Z,5.73
2022-11-08T23:10:31.155Z,4.97
2022-11-08T23:13:17.168Z,4.47
2022-11-08T23:16:02.713Z,4.87
2022-11-08T23:18:29.442Z,4.70
2022-11-08T23:21:14.763Z,3.77
2022-11-08T23:24:00.275Z,4.03
2022-11-08T23:26:45.628Z,4.07
2022-11-08T23:29:31.285Z,4.47
2022-11-08T23:31:58.057Z,5.17
2022-11-08T23:34:24.878Z,3.63
2022-11-08T23:36:51.661Z,3.57
2022-11-08T23:39:18.350Z,5.30
2022-11-08T23:42:03.696Z,3.93
2022-11-08T23:44:30.494Z,4.17
2022-11-08T23:46:59.632Z,4.50
2022-11-08T23:49:26.905Z,3.93
2022-11-08T23:51:54.163Z,4.63
2022-11-08T23:54:21.378Z,3.67
2022-11-08T23:56:48.283Z,3.97
2022-11-08T23:59:15.791Z,3.50
